sensor_id;sensor_type;location;lat;lon;timestamp;temperature;humidity
14061;DHT22;7105;43.616;1.434;2023-08-31T00:00:31;17.30;99.90
14061;DHT22;7105;43.616;1.434;2023-08-31T00:02:59;17.30;99.90
14061;DHT22;7105;43.616;1.434;2023-08-31T00:05:25;17.30;99.90
14061;DHT22;7105;43.616;1.434;2023-08-31T00:07:54;17.30;99.90
14061;DHT22;7105;43.616;1.434;2023-08-31T00:10:20;17.20;99.90
14061;DHT22;7105;43.616;1.434;2023-08-31T00:12:46;17.20;99.90
14061;DHT22;7105;43.616;1.434;2023-08-31T00:15:12;17.20;99.90
14061;DHT22;7105;43.616;1.434;2023-08-31T00:17:38;17.20;99.90
14061;DHT22;7105;43.616;1.434;2023-08-31T00:20:06;17.20;99.90
14061;DHT22;7105;43.616;1.434;2023-08-31T00:22:34;17.20;99.90
14061;DHT22;7105;43.616;1.434;2023-08-31T00:25:00;17.10;99.90
14061;DHT22;7105;43.616;1.434;2023-08-31T00:27:25;17.10;99.90
14061;DHT22;7105;43.616;1.434;2023-08-31T00:29:51;17.00;99.90
14061;DHT22;7105;43.616;1.434;2023-08-31T00:32:17;17.00;99.90
14061;DHT22;7105;43.616;1.434;2023-08-31T00:34:48;17.10;99.90
14061;DHT22;7105;43.616;1.434;2023-08-31T00:37:13;17.00;99.90
14061;DHT22;7105;43.616;1.434;2023-08-31T00:39:39;17.00;99.90
14061;DHT22;7105;43.616;1.434;2023-08-31T00:42:05;16.90;99.90
14061;DHT22;7105;43.616;1.434;2023-08-31T00:44:31;17.00;99.90
14061;DHT22;7105;43.616;1.434;2023-08-31T00:46:56;16.90;99.90
14061;DHT22;7105;43.616;1.434;2023-08-31T00:49:22;16.90;99.90
14061;DHT22;7105;43.616;1.434;2023-08-31T00:51:49;16.90;99.90
14061;DHT22;7105;43.616;1.434;2023-08-31T00:54:19;16.90;99.90
14061;DHT22;7105;43.616;1.434;2023-08-31T00:56:46;16.90;99.90
14061;DHT22;7105;43.616;1.434;2023-08-31T00:59:17;16.80;99.90
14061;DHT22;7105;43.616;1.434;2023-08-31T01:05:16;16.80;99.90
14061;DHT22;7105;43.616;1.434;2023-08-31T01:08:05;16.80;99.90
14061;DHT22;7105;43.616;1.434;2023-08-31T01:13:11;16.80;99.90
14061;DHT22;7105;43.616;1.434;2023-08-31T01:15:41;16.80;99.90
14061;DHT22;7105;43.616;1.434;2023-08-31T01:18:11;16.80;99.90
14061;DHT22;7105;43.616;1.434;2023-08-31T01:23:19;16.80;99.90
14061;DHT22;7105;43.616;1.434;2023-08-31T01:25:46;16.70;99.90
14061;DHT22;7105;43.616;1.434;2023-08-31T01:28:13;16.70;99.90
14061;DHT22;7105;43.616;1.434;2023-08-31T01:30:39;16.70;99.90
14061;DHT22;7105;43.616;1.434;2023-08-31T01:33:05;16.70;99.90
14061;DHT22;7105;43.616;1.434;2023-08-31T01:35:40;16.70;99.90
14061;DHT22;7105;43.616;1.434;2023-08-31T01:38:09;16.70;99.90
14061;DHT22;7105;43.616;1.434;2023-08-31T01:40:47;16.60;99.90
14061;DHT22;7105;43.616;1.434;2023-08-31T01:43:16;16.60;99.90
14061;DHT22;7105;43.616;1.434;2023-08-31T01:45:43;16.50;99.90
14061;DHT22;7105;43.616;1.434;2023-08-31T01:48:09;16.60;99.90
14061;DHT22;7105;43.616;1.434;2023-08-31T01:50:35;16.60;99.90
14061;DHT22;7105;43.616;1.434;2023-08-31T01:53:01;16.50;99.90
14061;DHT22;7105;43.616;1.434;2023-08-31T01:55:26;16.50;99.90
14061;DHT22;7105;43.616;1.434;2023-08-31T01:57:52;16.50;99.90
14061;DHT22;7105;43.616;1.434;2023-08-31T02:00:19;16.50;99.90
14061;DHT22;7105;43.616;1.434;2023-08-31T02:02:44;16.50;99.90
14061;DHT22;7105;43.616;1.434;2023-08-31T02:05:10;16.60;99.90
14061;DHT22;7105;43.616;1.434;2023-08-31T02:07:36;16.70;99.90
14061;DHT22;7105;43.616;1.434;2023-08-31T02:10:03;16.80;99.90
14061;DHT22;7105;43.616;1.434;2023-08-31T02:12:32;16.80;99.90
14061;DHT22;7105;43.616;1.434;2023-08-31T02:14:57;16.80;99.90
14061;DHT22;7105;43.616;1.434;2023-08-31T02:17:23;16.70;99.90
14061;DHT22;7105;43.616;1.434;2023-08-31T02:19:50;16.80;99.90
14061;DHT22;7105;43.616;1.434;2023-08-31T02:22:16;16.80;99.90
14061;DHT22;7105;43.616;1.434;2023-08-31T02:24:43;16.80;99.90
14061;DHT22;7105;43.616;1.434;2023-08-31T02:27:09;16.90;99.90
14061;DHT22;7105;43.616;1.434;2023-08-31T02:29:35;16.90;99.90
14061;DHT22;7105;43.616;1.434;2023-08-31T02:32:04;17.00;99.90
14061;DHT22;7105;43.616;1.434;2023-08-31T02:34:30;17.00;99.90
14061;DHT22;7105;43.616;1.434;2023-08-31T02:36:55;17.10;99.90
14061;DHT22;7105;43.616;1.434;2023-08-31T02:39:21;17.00;99.90
14061;DHT22;7105;43.616;1.434;2023-08-31T02:41:47;16.80;99.90
14061;DHT22;7105;43.616;1.434;2023-08-31T02:44:12;16.80;99.90
14061;DHT22;7105;43.616;1.434;2023-08-31T02:46:38;16.80;99.90
14061;DHT22;7105;43.616;1.434;2023-08-31T02:49:05;16.90;99.90
14061;DHT22;7105;43.616;1.434;2023-08-31T02:51:30;16.90;99.90
14061;DHT22;7105;43.616;1.434;2023-08-31T02:53:56;17.00;99.90
14061;DHT22;7105;43.616;1.434;2023-08-31T02:56:21;16.90;99.90
14061;DHT22;7105;43.616;1.434;2023-08-31T02:58:47;17.00;99.90
14061;DHT22;7105;43.616;1.434;2023-08-31T03:01:13;16.90;99.90
14061;DHT22;7105;43.616;1.434;2023-08-31T03:03:40;16.90;99.90
14061;DHT22;7105;43.616;1.434;2023-08-31T03:06:07;16.90;99.90
14061;DHT22;7105;43.616;1.434;2023-08-31T03:08:36;16.80;99.90
14061;DHT22;7105;43.616;1.434;2023-08-31T03:11:03;16.80;99.90
14061;DHT22;7105;43.616;1.434;2023-08-31T03:13:29;16.90;99.90
14061;DHT22;7105;43.616;1.434;2023-08-31T03:15:55;16.90;99.90
14061;DHT22;7105;43.616;1.434;2023-08-31T03:18:22;17.00;99.90
14061;DHT22;7105;43.616;1.434;2023-08-31T03:20:48;17.00;99.90
14061;DHT22;7105;43.616;1.434;2023-08-31T03:23:14;17.00;99.90
14061;DHT22;7105;43.616;1.434;2023-08-31T03:25:40;16.90;99.90
14061;DHT22;7105;43.616;1.434;2023-08-31T03:28:05;16.80;99.90
14061;DHT22;7105;43.616;1.434;2023-08-31T03:30:31;16.80;99.90
14061;DHT22;7105;43.616;1.434;2023-08-31T03:32:57;16.80;99.90
14061;DHT22;7105;43.616;1.434;2023-08-31T03:35:22;16.90;99.90
14061;DHT22;7105;43.616;1.434;2023-08-31T03:37:52;16.90;99.90
14061;DHT22;7105;43.616;1.434;2023-08-31T03:40:18;16.80;99.90
14061;DHT22;7105;43.616;1.434;2023-08-31T03:42:44;16.90;99.90
14061;DHT22;7105;43.616;1.434;2023-08-31T03:45:11;16.90;99.90
14061;DHT22;7105;43.616;1.434;2023-08-31T03:47:37;17.00;99.90
14061;DHT22;7105;43.616;1.434;2023-08-31T03:50:03;16.90;99.90
14061;DHT22;7105;43.616;1.434;2023-08-31T03:52:29;16.90;99.90
14061;DHT22;7105;43.616;1.434;2023-08-31T03:54:55;16.70;99.90
14061;DHT22;7105;43.616;1.434;2023-08-31T03:57:21;16.70;99.90
14061;DHT22;7105;43.616;1.434;2023-08-31T03:59:46;16.70;99.90
14061;DHT22;7105;43.616;1.434;2023-08-31T04:02:12;16.70;99.90
14061;DHT22;7105;43.616;1.434;2023-08-31T04:04:38;16.70;99.90
14061;DHT22;7105;43.616;1.434;2023-08-31T04:07:04;16.70;99.90
14061;DHT22;7105;43.616;1.434;2023-08-31T04:09:30;16.70;99.90
14061;DHT22;7105;43.616;1.434;2023-08-31T04:11:56;16.70;99.90
14061;DHT22;7105;43.616;1.434;2023-08-31T04:14:21;16.70;99.90
14061;DHT22;7105;43.616;1.434;2023-08-31T04:16:47;16.70;99.90
14061;DHT22;7105;43.616;1.434;2023-08-31T04:19:16;16.60;99.90
14061;DHT22;7105;43.616;1.434;2023-08-31T04:21:42;16.60;99.90
14061;DHT22;7105;43.616;1.434;2023-08-31T04:24:08;16.60;99.90
14061;DHT22;7105;43.616;1.434;2023-08-31T04:26:34;16.70;99.90
14061;DHT22;7105;43.616;1.434;2023-08-31T04:29:02;16.80;99.90
14061;DHT22;7105;43.616;1.434;2023-08-31T04:31:28;16.80;99.90
14061;DHT22;7105;43.616;1.434;2023-08-31T04:33:54;16.90;99.90
14061;DHT22;7105;43.616;1.434;2023-08-31T04:36:21;16.90;99.90
14061;DHT22;7105;43.616;1.434;2023-08-31T04:38:48;16.80;99.90
14061;DHT22;7105;43.616;1.434;2023-08-31T04:41:14;16.90;99.90
14061;DHT22;7105;43.616;1.434;2023-08-31T04:43:40;16.90;99.90
14061;DHT22;7105;43.616;1.434;2023-08-31T04:46:06;16.80;99.90
14061;DHT22;7105;43.616;1.434;2023-08-31T04:48:32;16.90;99.90
14061;DHT22;7105;43.616;1.434;2023-08-31T04:50:58;16.80;99.90
14061;DHT22;7105;43.616;1.434;2023-08-31T04:53:24;16.70;99.90
14061;DHT22;7105;43.616;1.434;2023-08-31T04:55:50;16.70;99.90
14061;DHT22;7105;43.616;1.434;2023-08-31T04:58:15;16.70;99.90
14061;DHT22;7105;43.616;1.434;2023-08-31T05:00:41;16.60;99.90
14061;DHT22;7105;43.616;1.434;2023-08-31T05:03:06;16.60;99.90
14061;DHT22;7105;43.616;1.434;2023-08-31T05:05:32;16.50;99.90
14061;DHT22;7105;43.616;1.434;2023-08-31T05:07:58;16.50;99.90
14061;DHT22;7105;43.616;1.434;2023-08-31T05:10:24;16.50;99.90
14061;DHT22;7105;43.616;1.434;2023-08-31T05:12:50;16.40;99.90
14061;DHT22;7105;43.616;1.434;2023-08-31T05:15:17;16.50;99.90
14061;DHT22;7105;43.616;1.434;2023-08-31T05:17:42;16.50;99.90
14061;DHT22;7105;43.616;1.434;2023-08-31T05:20:08;16.50;99.90
14061;DHT22;7105;43.616;1.434;2023-08-31T05:22:35;16.40;99.90
14061;DHT22;7105;43.616;1.434;2023-08-31T05:25:01;16.50;99.90
14061;DHT22;7105;43.616;1.434;2023-08-31T05:27:27;16.50;99.90
14061;DHT22;7105;43.616;1.434;2023-08-31T05:29:53;16.60;99.90
14061;DHT22;7105;43.616;1.434;2023-08-31T05:32:18;16.60;99.90
14061;DHT22;7105;43.616;1.434;2023-08-31T05:34:44;16.60;99.90
14061;DHT22;7105;43.616;1.434;2023-08-31T05:37:10;16.60;99.90
14061;DHT22;7105;43.616;1.434;2023-08-31T05:39:35;16.70;99.90
14061;DHT22;7105;43.616;1.434;2023-08-31T05:42:01;16.80;99.90
14061;DHT22;7105;43.616;1.434;2023-08-31T05:44:27;16.90;99.90
14061;DHT22;7105;43.616;1.434;2023-08-31T05:46:53;17.00;99.90
14061;DHT22;7105;43.616;1.434;2023-08-31T05:49:18;17.00;99.90
14061;DHT22;7105;43.616;1.434;2023-08-31T05:51:44;17.10;99.90
14061;DHT22;7105;43.616;1.434;2023-08-31T05:54:09;17.20;99.90
14061;DHT22;7105;43.616;1.434;2023-08-31T05:56:39;17.30;99.90
14061;DHT22;7105;43.616;1.434;2023-08-31T05:59:06;17.10;99.90
14061;DHT22;7105;43.616;1.434;2023-08-31T06:01:33;17.00;99.90
14061;DHT22;7105;43.616;1.434;2023-08-31T06:03:59;16.90;99.90
14061;DHT22;7105;43.616;1.434;2023-08-31T06:06:24;16.90;99.90
14061;DHT22;7105;43.616;1.434;2023-08-31T06:08:50;17.10;99.90
14061;DHT22;7105;43.616;1.434;2023-08-31T06:11:16;17.20;99.90
14061;DHT22;7105;43.616;1.434;2023-08-31T06:13:42;17.40;99.90
14061;DHT22;7105;43.616;1.434;2023-08-31T06:16:07;17.50;99.90
14061;DHT22;7105;43.616;1.434;2023-08-31T06:18:33;17.60;99.90
14061;DHT22;7105;43.616;1.434;2023-08-31T06:20:59;17.90;99.90
14061;DHT22;7105;43.616;1.434;2023-08-31T06:23:24;18.10;99.90
14061;DHT22;7105;43.616;1.434;2023-08-31T06:25:50;18.10;99.90
14061;DHT22;7105;43.616;1.434;2023-08-31T06:28:16;18.20;99.90
14061;DHT22;7105;43.616;1.434;2023-08-31T06:30:42;18.20;99.90
14061;DHT22;7105;43.616;1.434;2023-08-31T06:33:13;18.00;99.90
14061;DHT22;7105;43.616;1.434;2023-08-31T06:35:40;17.90;99.90
14061;DHT22;7105;43.616;1.434;2023-08-31T06:38:06;18.00;99.90
14061;DHT22;7105;43.616;1.434;2023-08-31T06:40:31;18.10;99.90
14061;DHT22;7105;43.616;1.434;2023-08-31T06:42:57;17.90;99.90
14061;DHT22;7105;43.616;1.434;2023-08-31T06:45:23;17.70;99.90
14061;DHT22;7105;43.616;1.434;2023-08-31T06:47:49;17.90;99.90
14061;DHT22;7105;43.616;1.434;2023-08-31T06:50:17;18.30;99.90
14061;DHT22;7105;43.616;1.434;2023-08-31T06:52:42;18.60;99.90
14061;DHT22;7105;43.616;1.434;2023-08-31T06:55:09;18.90;99.90
14061;DHT22;7105;43.616;1.434;2023-08-31T06:57:36;19.40;99.90
14061;DHT22;7105;43.616;1.434;2023-08-31T07:00:04;19.20;99.90
14061;DHT22;7105;43.616;1.434;2023-08-31T07:02:32;19.30;99.90
14061;DHT22;7105;43.616;1.434;2023-08-31T07:04:59;20.30;99.90
14061;DHT22;7105;43.616;1.434;2023-08-31T07:07:28;20.80;99.90
14061;DHT22;7105;43.616;1.434;2023-08-31T07:09:54;23.50;99.90
14061;DHT22;7105;43.616;1.434;2023-08-31T07:12:20;22.00;99.90
14061;DHT22;7105;43.616;1.434;2023-08-31T07:14:45;21.20;99.90
14061;DHT22;7105;43.616;1.434;2023-08-31T07:17:11;25.30;99.90
14061;DHT22;7105;43.616;1.434;2023-08-31T07:19:37;27.30;99.90
14061;DHT22;7105;43.616;1.434;2023-08-31T07:22:03;29.80;99.90
14061;DHT22;7105;43.616;1.434;2023-08-31T07:24:29;30.80;99.90
14061;DHT22;7105;43.616;1.434;2023-08-31T07:26:55;28.80;99.90
14061;DHT22;7105;43.616;1.434;2023-08-31T07:29:21;28.80;99.90
14061;DHT22;7105;43.616;1.434;2023-08-31T07:31:47;29.80;99.90
14061;DHT22;7105;43.616;1.434;2023-08-31T07:34:13;29.20;99.90
14061;DHT22;7105;43.616;1.434;2023-08-31T07:36:38;30.00;99.90
14061;DHT22;7105;43.616;1.434;2023-08-31T07:39:05;30.90;99.90
14061;DHT22;7105;43.616;1.434;2023-08-31T07:41:31;30.30;99.90
14061;DHT22;7105;43.616;1.434;2023-08-31T07:43:56;31.20;99.90
14061;DHT22;7105;43.616;1.434;2023-08-31T07:46:22;30.40;99.90
14061;DHT22;7105;43.616;1.434;2023-08-31T07:48:48;30.40;99.90
14061;DHT22;7105;43.616;1.434;2023-08-31T07:51:15;31.20;99.90
14061;DHT22;7105;43.616;1.434;2023-08-31T07:53:41;31.60;99.90
14061;DHT22;7105;43.616;1.434;2023-08-31T07:56:07;30.60;99.90
14061;DHT22;7105;43.616;1.434;2023-08-31T07:58:32;31.10;99.90
14061;DHT22;7105;43.616;1.434;2023-08-31T08:00:58;30.60;99.90
14061;DHT22;7105;43.616;1.434;2023-08-31T08:03:24;31.50;99.90
14061;DHT22;7105;43.616;1.434;2023-08-31T08:05:49;29.20;99.90
14061;DHT22;7105;43.616;1.434;2023-08-31T08:08:15;29.30;99.90
14061;DHT22;7105;43.616;1.434;2023-08-31T08:10:41;31.10;99.90
14061;DHT22;7105;43.616;1.434;2023-08-31T08:13:08;31.90;99.90
14061;DHT22;7105;43.616;1.434;2023-08-31T08:15:34;32.90;99.90
14061;DHT22;7105;43.616;1.434;2023-08-31T08:18:00;32.40;99.90
14061;DHT22;7105;43.616;1.434;2023-08-31T08:20:27;32.30;99.90
14061;DHT22;7105;43.616;1.434;2023-08-31T08:22:54;30.20;99.90
14061;DHT22;7105;43.616;1.434;2023-08-31T08:25:20;29.50;99.90
14061;DHT22;7105;43.616;1.434;2023-08-31T08:27:47;28.50;99.90
14061;DHT22;7105;43.616;1.434;2023-08-31T08:30:14;30.10;99.90
14061;DHT22;7105;43.616;1.434;2023-08-31T08:32:41;25.90;99.90
14061;DHT22;7105;43.616;1.434;2023-08-31T08:35:07;27.30;99.90
14061;DHT22;7105;43.616;1.434;2023-08-31T08:37:33;29.20;99.90
14061;DHT22;7105;43.616;1.434;2023-08-31T08:39:59;30.30;99.90
14061;DHT22;7105;43.616;1.434;2023-08-31T08:42:25;32.00;99.90
14061;DHT22;7105;43.616;1.434;2023-08-31T08:44:51;31.90;99.90
14061;DHT22;7105;43.616;1.434;2023-08-31T08:47:20;30.20;99.90
14061;DHT22;7105;43.616;1.434;2023-08-31T08:49:47;30.70;99.90
14061;DHT22;7105;43.616;1.434;2023-08-31T08:52:17;28.60;99.90
14061;DHT22;7105;43.616;1.434;2023-08-31T08:54:44;26.80;99.90
14061;DHT22;7105;43.616;1.434;2023-08-31T08:57:10;29.10;99.90
14061;DHT22;7105;43.616;1.434;2023-08-31T08:59:36;28.70;99.90
14061;DHT22;7105;43.616;1.434;2023-08-31T09:02:02;26.00;99.90
14061;DHT22;7105;43.616;1.434;2023-08-31T09:04:30;27.90;99.90
14061;DHT22;7105;43.616;1.434;2023-08-31T09:06:56;28.00;99.90
14061;DHT22;7105;43.616;1.434;2023-08-31T09:09:22;27.50;99.90
14061;DHT22;7105;43.616;1.434;2023-08-31T09:11:48;27.40;99.90
14061;DHT22;7105;43.616;1.434;2023-08-31T09:14:18;25.10;99.90
14061;DHT22;7105;43.616;1.434;2023-08-31T09:16:46;24.50;99.90
14061;DHT22;7105;43.616;1.434;2023-08-31T09:19:25;24.60;99.90
14061;DHT22;7105;43.616;1.434;2023-08-31T09:21:56;24.10;99.90
14061;DHT22;7105;43.616;1.434;2023-08-31T09:24:22;24.00;99.90
14061;DHT22;7105;43.616;1.434;2023-08-31T09:26:58;24.60;99.90
14061;DHT22;7105;43.616;1.434;2023-08-31T09:29:24;23.90;99.90
14061;DHT22;7105;43.616;1.434;2023-08-31T09:31:51;24.70;99.90
14061;DHT22;7105;43.616;1.434;2023-08-31T09:34:17;24.80;99.90
14061;DHT22;7105;43.616;1.434;2023-08-31T09:36:43;25.20;99.90
14061;DHT22;7105;43.616;1.434;2023-08-31T09:39:10;25.10;99.90
14061;DHT22;7105;43.616;1.434;2023-08-31T09:41:55;25.40;99.90
14061;DHT22;7105;43.616;1.434;2023-08-31T09:44:22;24.40;99.90
14061;DHT22;7105;43.616;1.434;2023-08-31T09:46:48;24.60;99.90
14061;DHT22;7105;43.616;1.434;2023-08-31T09:49:15;24.80;99.90
14061;DHT22;7105;43.616;1.434;2023-08-31T09:51:46;24.80;99.90
14061;DHT22;7105;43.616;1.434;2023-08-31T09:54:14;24.80;99.90
14061;DHT22;7105;43.616;1.434;2023-08-31T09:56:42;24.50;99.90
14061;DHT22;7105;43.616;1.434;2023-08-31T09:59:10;24.20;99.90
14061;DHT22;7105;43.616;1.434;2023-08-31T10:01:36;23.60;99.90
14061;DHT22;7105;43.616;1.434;2023-08-31T10:04:03;23.20;99.90
14061;DHT22;7105;43.616;1.434;2023-08-31T10:06:31;23.60;99.90
14061;DHT22;7105;43.616;1.434;2023-08-31T10:08:57;23.60;99.90
14061;DHT22;7105;43.616;1.434;2023-08-31T10:11:25;23.30;99.90
14061;DHT22;7105;43.616;1.434;2023-08-31T10:13:53;23.50;99.90
14061;DHT22;7105;43.616;1.434;2023-08-31T10:16:20;23.80;99.90
14061;DHT22;7105;43.616;1.434;2023-08-31T10:18:47;24.00;99.90
14061;DHT22;7105;43.616;1.434;2023-08-31T10:21:16;23.80;99.90
14061;DHT22;7105;43.616;1.434;2023-08-31T10:23:46;23.40;99.90
14061;DHT22;7105;43.616;1.434;2023-08-31T10:26:13;23.90;99.90
14061;DHT22;7105;43.616;1.434;2023-08-31T10:28:47;23.70;99.90
14061;DHT22;7105;43.616;1.434;2023-08-31T10:31:17;23.70;99.90
14061;DHT22;7105;43.616;1.434;2023-08-31T10:34:04;23.70;99.90
14061;DHT22;7105;43.616;1.434;2023-08-31T10:39:14;24.10;99.90
14061;DHT22;7105;43.616;1.434;2023-08-31T10:41:55;24.30;99.90
14061;DHT22;7105;43.616;1.434;2023-08-31T10:44:25;24.60;99.90
14061;DHT22;7105;43.616;1.434;2023-08-31T10:46:54;24.50;99.90
14061;DHT22;7105;43.616;1.434;2023-08-31T10:49:23;24.40;99.90
14061;DHT22;7105;43.616;1.434;2023-08-31T10:52:18;23.40;99.90
14061;DHT22;7105;43.616;1.434;2023-08-31T10:54:46;23.40;99.90
14061;DHT22;7105;43.616;1.434;2023-08-31T10:57:13;22.90;99.90
14061;DHT22;7105;43.616;1.434;2023-08-31T10:59:45;22.80;99.90
14061;DHT22;7105;43.616;1.434;2023-08-31T11:02:30;22.90;99.90
14061;DHT22;7105;43.616;1.434;2023-08-31T11:05:01;23.20;99.90
14061;DHT22;7105;43.616;1.434;2023-08-31T11:07:30;23.60;99.90
14061;DHT22;7105;43.616;1.434;2023-08-31T11:10:17;23.20;99.90
14061;DHT22;7105;43.616;1.434;2023-08-31T11:12:45;23.50;99.90
14061;DHT22;7105;43.616;1.434;2023-08-31T11:15:12;23.40;99.90
14061;DHT22;7105;43.616;1.434;2023-08-31T11:17:40;23.30;99.90
14061;DHT22;7105;43.616;1.434;2023-08-31T11:20:06;23.50;99.90
14061;DHT22;7105;43.616;1.434;2023-08-31T11:22:38;23.30;99.90
14061;DHT22;7105;43.616;1.434;2023-08-31T11:25:04;23.40;99.90
14061;DHT22;7105;43.616;1.434;2023-08-31T11:27:29;23.60;99.90
14061;DHT22;7105;43.616;1.434;2023-08-31T11:29:55;23.30;99.90
14061;DHT22;7105;43.616;1.434;2023-08-31T11:32:23;23.30;99.90
14061;DHT22;7105;43.616;1.434;2023-08-31T11:34:50;23.50;99.90
14061;DHT22;7105;43.616;1.434;2023-08-31T11:37:19;23.70;99.90
14061;DHT22;7105;43.616;1.434;2023-08-31T11:39:51;23.80;99.90
14061;DHT22;7105;43.616;1.434;2023-08-31T11:42:17;23.60;99.90
14061;DHT22;7105;43.616;1.434;2023-08-31T11:44:49;23.30;99.90
14061;DHT22;7105;43.616;1.434;2023-08-31T11:47:15;22.90;99.90
14061;DHT22;7105;43.616;1.434;2023-08-31T11:49:42;23.10;99.90
14061;DHT22;7105;43.616;1.434;2023-08-31T11:52:10;23.20;99.90
14061;DHT22;7105;43.616;1.434;2023-08-31T11:54:40;23.00;99.90
14061;DHT22;7105;43.616;1.434;2023-08-31T11:57:07;22.80;99.90
14061;DHT22;7105;43.616;1.434;2023-08-31T11:59:37;23.10;99.90
14061;DHT22;7105;43.616;1.434;2023-08-31T12:02:07;23.40;99.90
14061;DHT22;7105;43.616;1.434;2023-08-31T12:04:42;23.50;99.90
14061;DHT22;7105;43.616;1.434;2023-08-31T12:07:12;23.60;99.90
14061;DHT22;7105;43.616;1.434;2023-08-31T12:09:41;23.70;99.90
14061;DHT22;7105;43.616;1.434;2023-08-31T12:12:07;24.00;99.90
14061;DHT22;7105;43.616;1.434;2023-08-31T12:14:33;23.90;99.90
14061;DHT22;7105;43.616;1.434;2023-08-31T12:17:05;23.90;99.90
14061;DHT22;7105;43.616;1.434;2023-08-31T12:19:31;24.10;99.90
14061;DHT22;7105;43.616;1.434;2023-08-31T12:21:58;23.80;99.90
14061;DHT22;7105;43.616;1.434;2023-08-31T12:24:24;24.00;99.90
14061;DHT22;7105;43.616;1.434;2023-08-31T12:26:50;24.10;99.90
14061;DHT22;7105;43.616;1.434;2023-08-31T12:29:16;24.10;99.90
14061;DHT22;7105;43.616;1.434;2023-08-31T12:31:42;24.20;99.90
14061;DHT22;7105;43.616;1.434;2023-08-31T12:34:09;24.20;99.90
14061;DHT22;7105;43.616;1.434;2023-08-31T12:36:35;24.20;99.90
14061;DHT22;7105;43.616;1.434;2023-08-31T12:39:09;24.30;99.90
14061;DHT22;7105;43.616;1.434;2023-08-31T12:41:39;24.50;99.90
14061;DHT22;7105;43.616;1.434;2023-08-31T12:44:07;24.30;99.90
14061;DHT22;7105;43.616;1.434;2023-08-31T12:46:34;24.30;99.90
14061;DHT22;7105;43.616;1.434;2023-08-31T12:49:03;24.40;99.90
14061;DHT22;7105;43.616;1.434;2023-08-31T12:51:29;24.30;99.90
14061;DHT22;7105;43.616;1.434;2023-08-31T12:53:56;24.50;99.90
14061;DHT22;7105;43.616;1.434;2023-08-31T12:56:22;24.50;99.90
14061;DHT22;7105;43.616;1.434;2023-08-31T12:58:53;24.30;99.90
14061;DHT22;7105;43.616;1.434;2023-08-31T13:01:20;24.20;99.90
14061;DHT22;7105;43.616;1.434;2023-08-31T13:03:49;24.50;99.90
14061;DHT22;7105;43.616;1.434;2023-08-31T13:06:15;24.40;99.90
14061;DHT22;7105;43.616;1.434;2023-08-31T13:08:42;24.20;99.90
14061;DHT22;7105;43.616;1.434;2023-08-31T13:11:09;24.40;99.90
14061;DHT22;7105;43.616;1.434;2023-08-31T13:13:35;24.50;99.90
14061;DHT22;7105;43.616;1.434;2023-08-31T13:16:00;24.50;99.90
14061;DHT22;7105;43.616;1.434;2023-08-31T13:18:26;24.20;99.90
14061;DHT22;7105;43.616;1.434;2023-08-31T13:20:53;24.40;99.90
14061;DHT22;7105;43.616;1.434;2023-08-31T13:23:20;24.50;99.90
14061;DHT22;7105;43.616;1.434;2023-08-31T13:25:45;24.50;99.90
14061;DHT22;7105;43.616;1.434;2023-08-31T13:28:12;24.30;99.90
14061;DHT22;7105;43.616;1.434;2023-08-31T13:30:38;24.40;99.90
14061;DHT22;7105;43.616;1.434;2023-08-31T13:33:04;24.70;99.90
14061;DHT22;7105;43.616;1.434;2023-08-31T13:35:30;24.50;99.90
14061;DHT22;7105;43.616;1.434;2023-08-31T13:37:56;24.70;99.90
14061;DHT22;7105;43.616;1.434;2023-08-31T13:40:21;24.80;99.90
14061;DHT22;7105;43.616;1.434;2023-08-31T13:42:54;24.90;99.90
14061;DHT22;7105;43.616;1.434;2023-08-31T13:45:22;25.00;99.90
14061;DHT22;7105;43.616;1.434;2023-08-31T13:47:49;24.90;99.90
14061;DHT22;7105;43.616;1.434;2023-08-31T13:50:16;25.00;99.90
14061;DHT22;7105;43.616;1.434;2023-08-31T13:52:42;25.00;99.90
14061;DHT22;7105;43.616;1.434;2023-08-31T13:55:09;25.20;99.90
14061;DHT22;7105;43.616;1.434;2023-08-31T13:57:34;25.20;99.90
14061;DHT22;7105;43.616;1.434;2023-08-31T14:00:02;25.40;99.90
14061;DHT22;7105;43.616;1.434;2023-08-31T14:02:30;25.30;99.90
14061;DHT22;7105;43.616;1.434;2023-08-31T14:04:56;24.90;99.90
14061;DHT22;7105;43.616;1.434;2023-08-31T14:07:22;24.90;99.90
14061;DHT22;7105;43.616;1.434;2023-08-31T14:09:48;25.00;99.90
14061;DHT22;7105;43.616;1.434;2023-08-31T14:12:13;25.00;99.90
14061;DHT22;7105;43.616;1.434;2023-08-31T14:14:39;25.10;99.90
14061;DHT22;7105;43.616;1.434;2023-08-31T14:17:06;25.30;99.90
14061;DHT22;7105;43.616;1.434;2023-08-31T14:19:33;25.50;99.90
14061;DHT22;7105;43.616;1.434;2023-08-31T14:22:01;25.70;99.90
14061;DHT22;7105;43.616;1.434;2023-08-31T14:24:29;25.60;99.90
14061;DHT22;7105;43.616;1.434;2023-08-31T14:26:54;25.30;99.90
14061;DHT22;7105;43.616;1.434;2023-08-31T14:29:23;25.30;99.90
14061;DHT22;7105;43.616;1.434;2023-08-31T14:31:49;25.30;99.90
14061;DHT22;7105;43.616;1.434;2023-08-31T14:34:14;25.60;99.90
14061;DHT22;7105;43.616;1.434;2023-08-31T14:36:40;25.30;99.90
14061;DHT22;7105;43.616;1.434;2023-08-31T14:39:06;25.10;99.90
14061;DHT22;7105;43.616;1.434;2023-08-31T14:41:32;25.20;99.90
14061;DHT22;7105;43.616;1.434;2023-08-31T14:43:57;25.50;99.90
14061;DHT22;7105;43.616;1.434;2023-08-31T14:46:23;25.60;99.90
14061;DHT22;7105;43.616;1.434;2023-08-31T14:48:50;25.40;99.90
14061;DHT22;7105;43.616;1.434;2023-08-31T14:51:16;25.30;99.90
14061;DHT22;7105;43.616;1.434;2023-08-31T14:53:42;25.00;99.90
14061;DHT22;7105;43.616;1.434;2023-08-31T14:56:08;25.10;99.90
14061;DHT22;7105;43.616;1.434;2023-08-31T14:58:34;25.30;99.90
14061;DHT22;7105;43.616;1.434;2023-08-31T15:01:00;25.50;99.90
14061;DHT22;7105;43.616;1.434;2023-08-31T15:03:26;25.50;99.90
14061;DHT22;7105;43.616;1.434;2023-08-31T15:05:52;25.70;99.90
14061;DHT22;7105;43.616;1.434;2023-08-31T15:08:21;25.60;99.90
14061;DHT22;7105;43.616;1.434;2023-08-31T15:10:47;25.70;99.90
14061;DHT22;7105;43.616;1.434;2023-08-31T15:13:13;25.80;99.90
14061;DHT22;7105;43.616;1.434;2023-08-31T15:15:38;25.50;99.90
14061;DHT22;7105;43.616;1.434;2023-08-31T15:18:04;25.30;99.90
14061;DHT22;7105;43.616;1.434;2023-08-31T15:20:30;25.70;99.90
14061;DHT22;7105;43.616;1.434;2023-08-31T15:22:56;25.80;99.90
14061;DHT22;7105;43.616;1.434;2023-08-31T15:25:21;25.90;99.90
14061;DHT22;7105;43.616;1.434;2023-08-31T15:27:47;26.10;99.90
14061;DHT22;7105;43.616;1.434;2023-08-31T15:30:13;25.60;99.90
14061;DHT22;7105;43.616;1.434;2023-08-31T15:32:40;25.70;99.90
14061;DHT22;7105;43.616;1.434;2023-08-31T15:35:06;25.70;99.90
14061;DHT22;7105;43.616;1.434;2023-08-31T15:37:32;25.80;99.90
14061;DHT22;7105;43.616;1.434;2023-08-31T15:39:58;25.70;99.90
14061;DHT22;7105;43.616;1.434;2023-08-31T15:42:25;25.90;99.90
14061;DHT22;7105;43.616;1.434;2023-08-31T15:44:51;25.70;99.90
14061;DHT22;7105;43.616;1.434;2023-08-31T15:47:21;25.60;99.90
14061;DHT22;7105;43.616;1.434;2023-08-31T15:49:50;25.80;99.90
14061;DHT22;7105;43.616;1.434;2023-08-31T15:52:16;25.90;99.90
14061;DHT22;7105;43.616;1.434;2023-08-31T15:54:42;26.00;99.90